createdAt,value
2023-02-14T11:25:13.812Z,3584.00
2023-02-14T11:26:13.776Z,3608.00
2023-02-14T11:27:13.820Z,3624.00
2023-02-14T11:28:13.754Z,3644.00
2023-02-14T11:29:13.769Z,3648.00
2023-02-14T11:30:13.794Z,3652.00
2023-02-14T11:31:13.763Z,3660.00
2023-02-14T11:32:13.695Z,3668.00
2023-02-14T11:33:13.703Z,3664.00
2023-02-14T11:34:13.653Z,3664.00
2023-02-14T11:35:13.682Z,3672.00
2023-02-14T11:36:13.652Z,3684.00
2023-02-14T11:37:26.898Z,3684.00
2023-02-14T11:38:13.594Z,3688.00
2023-02-14T11:39:13.594Z,3684.00
2023-02-14T11:40:13.561Z,3680.00
2023-02-14T11:41:13.578Z,3680.00
2023-02-14T11:42:13.538Z,3680.00
2023-02-14T11:43:14.795Z,3680.00
2023-02-14T11:44:13.550Z,3696.00
2023-02-14T11:45:13.547Z,3700.00
2023-02-14T11:46:13.534Z,3704.00
2023-02-14T11:47:13.555Z,3704.00
2023-02-14T11:48:13.458Z,3716.00
2023-02-14T11:49:13.504Z,3724.00
2023-02-14T11:50:13.509Z,3724.00
2023-02-14T11:51:13.628Z,3736.00
2023-02-14T11:52:13.449Z,3744.00
2023-02-14T11:53:13.448Z,3760.00
2023-02-14T11:54:13.371Z,3768.00
2023-02-14T11:55:13.440Z,3752.00
2023-02-14T11:56:13.444Z,3748.00
2023-02-14T11:57:13.354Z,3764.00
2023-02-14T11:58:13.312Z,3772.00
2023-02-14T11:59:13.300Z,3788.00
2023-02-14T12:00:13.342Z,3780.00
2023-02-14T12:01:13.372Z,3784.00
2023-02-14T12:02:13.374Z,3800.00
2023-02-14T12:03:13.399Z,3804.00
2023-02-14T12:04:13.323Z,3812.00
2023-02-14T12:05:13.221Z,3836.00
2023-02-14T12:06:13.226Z,3848.00
2023-02-14T12:07:13.197Z,3836.00
2023-02-14T12:08:13.198Z,3848.00
2023-02-14T12:09:13.162Z,3868.00
2023-02-14T12:10:13.177Z,3860.00
2023-02-14T12:11:13.276Z,3860.00
2023-02-14T12:12:13.136Z,3856.00
2023-02-14T12:13:13.107Z,3864.00
2023-02-14T12:14:13.128Z,3896.00
2023-02-14T12:15:13.086Z,3924.00
2023-02-14T12:16:13.122Z,3940.00
2023-02-14T12:17:13.061Z,3956.00
2023-02-14T12:18:13.052Z,3972.00
2023-02-14T12:19:13.022Z,3984.00
2023-02-14T12:20:13.034Z,4000.00
2023-02-14T12:21:13.118Z,3996.00
2023-02-14T12:22:13.000Z,4000.00
2023-02-14T12:23:12.971Z,4004.00
2023-02-14T12:24:12.963Z,4008.00
2023-02-14T12:25:12.987Z,4044.00
2023-02-14T12:26:12.944Z,4076.00
2023-02-14T12:27:12.933Z,4068.00
2023-02-14T12:28:12.921Z,4060.00
2023-02-14T12:29:12.932Z,4056.00
2023-02-14T12:30:12.994Z,4092.00
2023-02-14T12:31:13.018Z,4124.00
2023-02-14T12:32:12.901Z,4112.00
2023-02-14T12:33:12.838Z,4112.00
2023-02-14T12:34:12.833Z,4104.00
2023-02-14T12:35:12.829Z,4100.00
2023-02-14T12:36:12.874Z,4068.00
2023-02-14T12:37:12.795Z,4040.00
2023-02-14T12:38:12.782Z,4048.00
2023-02-14T12:39:12.744Z,4024.00
2023-02-14T12:40:12.743Z,4032.00
2023-02-14T12:41:12.750Z,4072.00
2023-02-14T12:42:12.700Z,4076.00
2023-02-14T12:43:12.697Z,4056.00
2023-02-14T12:44:12.711Z,4016.00
2023-02-14T12:45:12.686Z,4012.00
2023-02-14T12:46:12.691Z,4012.00
2023-02-14T12:47:12.671Z,3972.00
2023-02-14T12:48:15.080Z,3952.00
2023-02-14T12:49:12.626Z,3948.00
2023-02-14T12:50:12.611Z,3920.00
2023-02-14T12:51:12.597Z,3924.00
2023-02-14T12:52:12.596Z,3944.00
2023-02-14T12:53:12.608Z,3920.00
2023-02-14T12:54:12.567Z,3904.00
2023-02-14T12:55:12.548Z,3904.00
2023-02-14T12:56:12.509Z,3924.00
2023-02-14T12:57:12.545Z,3920.00
2023-02-14T12:58:12.525Z,3888.00
2023-02-14T12:59:12.893Z,3872.00
2023-02-14T13:00:12.502Z,3852.00
2023-02-14T13:01:13.245Z,3840.00
2023-02-14T13:02:12.494Z,3860.00
2023-02-14T13:03:12.504Z,3888.00
2023-02-14T13:04:12.414Z,3888.00
2023-02-14T13:05:12.430Z,3880.00
2023-02-14T13:06:12.391Z,3872.00
2023-02-14T13:07:12.373Z,3836.00
2023-02-14T13:08:12.390Z,3836.00
2023-02-14T13:09:12.362Z,3848.00
2023-02-14T13:10:12.375Z,3840.00
2023-02-14T13:11:12.325Z,3836.00
2023-02-14T13:12:12.296Z,3824.00
2023-02-14T13:13:12.318Z,3832.00
2023-02-14T13:14:12.293Z,3828.00
2023-02-14T13:15:12.285Z,3832.00
2023-02-14T13:16:12.271Z,3828.00
2023-02-14T13:17:12.244Z,3828.00
2023-02-14T13:18:12.265Z,3804.00
2023-02-14T13:19:12.232Z,3792.00
2023-02-14T13:20:12.208Z,3764.00
2023-02-14T13:21:12.177Z,3732.00
2023-02-14T13:22:12.168Z,3740.00
2023-02-14T13:23:12.146Z,3760.00
2023-02-14T13:24:12.136Z,3760.00
2023-02-14T13:25:12.145Z,3732.00
2023-02-14T13:26:12.095Z,3708.00
2023-02-14T13:27:12.097Z,3704.00
2023-02-14T13:28:12.094Z,3692.00
2023-02-14T13:29:12.068Z,3696.00
2023-02-14T13:30:12.132Z,3660.00
2023-02-14T13:31:12.229Z,3648.00
2023-02-14T13:32:12.049Z,3616.00
2023-02-14T13:33:12.041Z,3640.00
2023-02-14T13:34:11.999Z,3632.00
2023-02-14T13:35:12.012Z,3608.00
2023-02-14T13:36:12.009Z,3616.00
2023-02-14T13:37:11.964Z,3640.00
2023-02-14T13:38:12.001Z,3628.00
2023-02-14T13:39:11.942Z,3572.00
2023-02-14T13:40:11.927Z,3572.00
2023-02-14T13:41:11.941Z,3580.00
2023-02-14T13:42:11.974Z,3576.00
2023-02-14T13:43:11.898Z,3552.00
2023-02-14T13:44:11.889Z,3572.00
2023-02-14T13:45:14.094Z,3640.00
2023-02-14T13:46:11.887Z,3628.00
2023-02-14T13:47:11.827Z,3596.00
2023-02-14T13:48:11.826Z,3560.00
2023-02-14T13:49:11.898Z,3560.00
2023-02-14T13:50:11.781Z,3588.00
2023-02-14T13:51:11.764Z,3548.00
2023-02-14T13:52:11.770Z,3528.00
2023-02-14T13:53:11.730Z,3524.00
2023-02-14T13:54:11.720Z,3500.00
2023-02-14T13:55:11.700Z,3484.00
2023-02-14T13:56:11.709Z,3496.00
2023-02-14T13:57:11.701Z,3496.00
2023-02-14T13:58:11.680Z,3520.00
2023-02-14T13:59:11.661Z,3564.00
2023-02-14T14:00:11.670Z,3612.00
2023-02-14T14:01:11.660Z,3572.00
2023-02-14T14:02:11.624Z,3532.00
2023-02-14T14:03:11.631Z,3560.00
2023-02-14T14:04:11.679Z,3592.00
2023-02-14T14:05:11.593Z,3568.00
2023-02-14T14:06:11.554Z,3496.00
2023-02-14T14:07:11.544Z,3472.00
2023-02-14T14:08:11.536Z,3484.00
2023-02-14T14:09:11.530Z,3464.00
2023-02-14T14:10:11.533Z,3476.00
2023-02-14T14:11:11.492Z,3512.00
2023-02-14T14:12:11.495Z,3520.00
2023-02-14T14:13:11.456Z,3488.00
2023-02-14T14:14:11.448Z,3488.00
2023-02-14T14:15:11.466Z,3536.00
2023-02-14T14:16:11.506Z,3524.00
2023-02-14T14:17:11.429Z,3544.00
2023-02-14T14:18:11.435Z,3616.00
2023-02-14T14:19:11.381Z,3668.00
2023-02-14T14:20:11.390Z,3680.00
2023-02-14T14:21:11.362Z,3684.00
2023-02-14T14:22:11.381Z,3616.00
2023-02-14T14:23:11.328Z,3576.00
2023-02-14T14:24:11.352Z,3608.00
2023-02-14T14:25:11.317Z,3656.00
2023-02-14T14:26:11.316Z,3544.00
2023-02-14T14:27:11.361Z,3468.00
2023-02-14T14:28:11.297Z,3664.00
2023-02-14T14:29:11.289Z,3744.00
2023-02-14T14:30:11.321Z,3720.00
2023-02-14T14:31:11.301Z,3720.00
2023-02-14T14:32:11.254Z,3668.00
2023-02-14T14:33:11.211Z,3588.00
2023-02-14T14:34:11.242Z,3588.00
2023-02-14T14:35:11.215Z,3696.00
2023-02-14T14:36:11.176Z,3736.00
2023-02-14T14:37:11.163Z,3740.00
2023-02-14T14:38:11.145Z,3716.00
2023-02-14T14:39:11.133Z,3696.00
2023-02-14T14:40:11.185Z,3676.00
2023-02-14T14:41:11.103Z,3656.00
2023-02-14T14:42:11.068Z,3648.00
2023-02-14T14:43:11.077Z,3620.00
2023-02-14T14:44:11.057Z,3608.00
2023-02-14T14:45:11.063Z,3580.00
2023-02-14T14:46:11.081Z,3552.00
2023-02-14T14:47:11.006Z,3524.00
2023-02-14T14:48:10.981Z,3492.00
2023-02-14T14:49:10.987Z,3464.00
2023-02-14T14:50:11.075Z,3440.00
2023-02-14T14:51:10.965Z,3416.00
2023-02-14T14:52:10.984Z,3400.00
2023-02-14T14:53:10.998Z,3384.00
2023-02-14T14:54:10.933Z,3356.00
2023-02-14T14:55:10.942Z,3324.00
2023-02-14T14:56:10.885Z,3300.00
2023-02-14T14:57:10.876Z,3256.00
2023-02-14T14:58:10.922Z,3216.00
2023-02-14T14:59:10.837Z,3184.00
2023-02-14T15:00:10.921Z,3156.00
2023-02-14T15:01:10.894Z,3124.00
2023-02-14T15:02:10.801Z,3096.00
2023-02-14T15:03:10.808Z,2992.00
2023-02-14T15:04:12.344Z,2656.00
2023-02-14T15:05:10.780Z,2508.00
2023-02-14T15:06:10.760Z,2584.00
2023-02-14T15:07:10.746Z,2684.00
2023-02-14T15:08:10.750Z,2612.00
2023-02-14T15:09:10.705Z,2460.00
2023-02-14T15:10:10.736Z,2384.00
2023-02-14T15:11:10.710Z,2280.00
2023-02-14T15:12:10.678Z,2164.00
2023-02-14T15:13:10.676Z,2100.00
2023-02-14T15:14:10.651Z,2052.00
2023-02-14T15:15:10.617Z,2028.00
2023-02-14T15:16:10.743Z,2060.00
2023-02-14T15:17:10.647Z,2044.00
2023-02-14T15:18:10.591Z,1960.00
2023-02-14T15:19:10.568Z,1908.00
2023-02-14T15:20:10.566Z,1884.00
2023-02-14T15:21:10.576Z,1856.00
2023-02-14T15:22:10.551Z,1832.00
2023-02-14T15:23:10.541Z,1812.00
2023-02-14T15:24:10.524Z,1792.00
2023-02-14T15:25:10.503Z,1772.00
2023-02-14T15:26:10.484Z,1752.00
2023-02-14T15:27:10.464Z,1732.00
2023-02-14T15:28:17.989Z,1712.00
2023-02-14T15:29:17.988Z,1696.00
2023-02-14T15:30:19.012Z,1676.00
2023-02-14T15:31:17.998Z,1664.00
2023-02-14T15:32:19.120Z,1644.00
2023-02-14T15:33:17.949Z,1628.00
2023-02-14T15:34:17.905Z,1612.00
2023-02-14T15:35:20.071Z,1596.00
2023-02-14T15:36:17.866Z,1576.00
2023-02-14T15:37:17.869Z,1556.00
2023-02-14T15:38:10.334Z,1532.00
2023-02-14T15:39:10.306Z,1512.00
2023-02-14T15:40:10.296Z,1496.00
2023-02-14T15:41:10.286Z,1476.00
2023-02-14T15:42:10.286Z,1456.00
2023-02-14T15:43:10.257Z,1436.00
2023-02-14T15:44:10.327Z,1416.00
2023-02-14T15:45:10.257Z,1396.00
2023-02-14T15:46:10.326Z,1372.00
2023-02-14T15:47:10.209Z,1352.00
2023-02-14T15:48:10.205Z,1328.00
2023-02-14T15:49:10.193Z,1304.00
2023-02-14T15:50:10.213Z,1280.00
2023-02-14T15:51:10.172Z,1260.00
2023-02-14T15:52:10.139Z,1240.00
2023-02-14T15:53:10.111Z,1220.00
2023-02-14T15:54:10.104Z,1200.00
2023-02-14T15:55:10.095Z,1180.00
2023-02-14T15:56:10.084Z,1160.00
2023-02-14T15:57:10.081Z,1144.00
2023-02-14T15:58:10.066Z,1120.00
2023-02-14T15:59:10.028Z,1104.00
2023-02-14T16:00:10.004Z,1080.00
2023-02-14T16:01:10.012Z,1060.00
2023-02-14T16:02:10.009Z,1040.00
2023-02-14T16:03:09.975Z,1020.00
2023-02-14T16:04:10.282Z,1000.00
2023-02-14T16:05:09.987Z,980.00
2023-02-14T16:06:09.925Z,960.00
2023-02-14T16:07:09.922Z,940.00
2023-02-14T16:08:09.892Z,920.00
2023-02-14T16:09:09.896Z,896.00
2023-02-14T16:10:09.894Z,876.00
2023-02-14T16:11:09.854Z,852.00
2023-02-14T16:12:09.872Z,836.00
2023-02-14T16:13:09.830Z,808.00
2023-02-14T16:14:09.899Z,792.00
2023-02-14T16:15:09.803Z,772.00
2023-02-14T16:16:09.893Z,748.00
2023-02-14T16:17:09.773Z,724.00
2023-02-14T16:18:09.770Z,700.00
2023-02-14T16:19:09.733Z,680.00
2023-02-14T16:20:09.748Z,656.00
2023-02-14T16:21:09.944Z,636.00
2023-02-14T16:22:09.724Z,612.00
2023-02-14T16:23:09.672Z,588.00
2023-02-14T16:24:09.847Z,564.00
2023-02-14T16:25:09.683Z,544.00
2023-02-14T16:26:09.637Z,516.00
2023-02-14T16:27:09.614Z,496.00
2023-02-14T16:28:09.647Z,476.00
2023-02-14T16:29:09.584Z,452.00
2023-02-14T16:30:09.595Z,428.00
2023-02-14T16:31:09.663Z,404.00
2023-02-14T16:32:16.304Z,388.00
2023-02-14T16:33:10.528Z,364.00
2023-02-14T16:34:09.522Z,344.00
2023-02-14T16:35:09.523Z,320.00
2023-02-14T16:36:09.537Z,300.00
2023-02-14T16:37:09.554Z,280.00
2023-02-14T16:38:09.526Z,260.00
2023-02-14T16:39:09.501Z,244.00
2023-02-14T16:40:09.432Z,228.00
2023-02-14T16:41:09.411Z,208.00
2023-02-14T16:42:09.409Z,192.00
2023-02-14T16:43:09.399Z,176.00
2023-02-14T16:44:09.404Z,164.00
2023-02-14T16:45:09.357Z,148.00
2023-02-14T16:46:09.417Z,132.00
2023-02-14T16:47:09.327Z,124.00
2023-02-14T16:48:09.327Z,108.00
2023-02-14T16:49:09.347Z,96.00
2023-02-14T16:50:09.483Z,88.00
2023-02-14T16:51:09.268Z,80.00
2023-02-14T16:52:09.252Z,68.00
2023-02-14T16:53:09.290Z,60.00
2023-02-14T16:54:09.233Z,52.00
2023-02-14T16:55:09.211Z,44.00
2023-02-14T16:56:09.206Z,40.00
2023-02-14T16:57:09.206Z,32.00
2023-02-14T16:58:09.197Z,32.00
2023-02-14T16:59:09.164Z,28.00
2023-02-14T17:00:09.185Z,20.00
2023-02-14T17:01:09.229Z,20.00
2023-02-14T17:02:09.158Z,12.00
2023-02-14T17:03:09.183Z,16.00
2023-02-14T17:04:09.147Z,12.00
2023-02-14T17:05:09.101Z,8.00
2023-02-14T17:06:09.072Z,8.00
2023-02-14T17:07:09.080Z,8.00
2023-02-14T17:08:09.168Z,4.00
2023-02-14T17:09:09.044Z,4.00
2023-02-14T17:10:09.038Z,4.00
2023-02-14T17:11:08.998Z,4.00
2023-02-14T17:12:09.000Z,4.00
2023-02-14T17:13:09.001Z,0.00
2023-02-14T17:14:08.987Z,4.00
2023-02-14T17:15:09.030Z,4.00
2023-02-14T17:16:08.999Z,0.00
2023-02-14T17:17:08.937Z,0.00
2023-02-14T17:18:08.955Z,0.00
2023-02-14T17:19:08.961Z,0.00
2023-02-14T17:20:08.885Z,0.00
2023-02-14T17:21:08.875Z,0.00
2023-02-14T17:22:08.912Z,0.00
2023-02-14T17:23:08.912Z,0.00
2023-02-14T17:24:08.861Z,0.00
2023-02-14T17:25:08.815Z,0.00
2023-02-14T17:26:08.815Z,0.00
2023-02-14T17:27:08.833Z,0.00
2023-02-14T17:28:08.787Z,0.00
2023-02-14T17:29:08.790Z,0.00
2023-02-14T17:30:08.815Z,0.00
2023-02-14T17:31:08.928Z,0.00
2023-02-14T17:32:08.809Z,0.00
2023-02-14T17:33:08.718Z,0.00
2023-02-14T17:34:08.708Z,0.00
2023-02-14T17:35:08.800Z,0.00
2023-02-14T17:36:10.710Z,0.00
2023-02-14T17:37:08.696Z,0.00
2023-02-14T17:38:08.661Z,0.00
2023-02-14T17:39:08.671Z,0.00
2023-02-14T17:40:08.672Z,0.00
2023-02-14T17:41:08.632Z,0.00
2023-02-14T17:42:10.437Z,0.00
2023-02-14T17:43:08.627Z,0.00
2023-02-14T17:44:08.603Z,0.00
2023-02-14T17:45:08.569Z,0.00
2023-02-14T17:46:08.684Z,0.00
2023-02-14T17:47:08.582Z,0.00
2023-02-14T17:48:10.870Z,0.00
2023-02-14T17:49:08.559Z,0.00
2023-02-14T17:50:08.512Z,0.00
2023-02-14T17:51:08.510Z,0.00
2023-02-14T17:52:08.494Z,0.00
2023-02-14T17:53:08.524Z,0.00
2023-02-14T17:54:08.472Z,0.00
2023-02-14T17:55:08.539Z,0.00
2023-02-14T17:56:08.497Z,0.00
2023-02-14T17:57:08.455Z,0.00
2023-02-14T17:58:08.409Z,0.00
2023-02-14T17:59:08.402Z,0.00
2023-02-14T18:00:09.634Z,0.00
2023-02-14T18:01:08.373Z,0.00
2023-02-14T18:02:08.476Z,0.00
2023-02-14T18:03:08.518Z,0.00
2023-02-14T18:04:08.382Z,0.00
2023-02-14T18:05:08.364Z,0.00
2023-02-14T18:06:09.843Z,0.00
2023-02-14T18:07:08.332Z,0.00
2023-02-14T18:08:08.295Z,0.00
2023-02-14T18:09:08.400Z,0.00
2023-02-14T18:10:08.289Z,0.00
2023-02-14T18:11:08.277Z,0.00
2023-02-14T18:12:12.217Z,0.00
2023-02-14T18:13:09.247Z,0.00
2023-02-14T18:14:08.225Z,0.00
2023-02-14T18:15:08.212Z,0.00
2023-02-14T18:16:08.288Z,0.00
2023-02-14T18:17:08.245Z,0.00
2023-02-14T18:18:10.088Z,0.00
2023-02-14T18:19:08.191Z,0.00
2023-02-14T18:20:08.148Z,0.00
2023-02-14T18:21:08.203Z,0.00
2023-02-14T18:22:08.136Z,0.00
2023-02-14T18:23:08.179Z,0.00
2023-02-14T18:24:08.234Z,0.00
2023-02-14T18:25:08.080Z,0.00
2023-02-14T18:26:08.082Z,0.00
2023-02-14T18:27:08.301Z,0.00
2023-02-14T18:28:08.028Z,0.00
2023-02-14T18:29:08.161Z,0.00
2023-02-14T18:30:08.067Z,0.00
2023-02-14T18:31:08.205Z,0.00
2023-02-14T18:32:08.087Z,0.00
2023-02-14T18:33:08.007Z,0.00
2023-02-14T18:34:07.968Z,0.00
2023-02-14T18:35:07.952Z,0.00
2023-02-14T18:36:07.958Z,0.00
2023-02-14T18:37:07.941Z,0.00
2023-02-14T18:38:07.942Z,0.00
2023-02-14T18:39:07.905Z,0.00
2023-02-14T18:40:09.669Z,0.00
2023-02-14T18:41:07.905Z,0.00
2023-02-14T18:42:07.833Z,0.00
2023-02-14T18:43:07.833Z,0.00
2023-02-14T18:44:07.832Z,0.00
2023-02-14T18:45:07.799Z,0.00
2023-02-14T18:46:07.819Z,0.00
2023-02-14T18:47:07.799Z,0.00
2023-02-14T18:48:07.776Z,0.00
2023-02-14T18:49:07.742Z,0.00
2023-02-14T18:50:07.748Z,0.00
2023-02-14T18:51:07.771Z,0.00
2023-02-14T18:52:07.752Z,0.00
2023-02-14T18:53:07.696Z,0.00
2023-02-14T18:54:07.683Z,0.00
2023-02-14T18:55:07.690Z,0.00
2023-02-14T18:56:07.664Z,0.00
2023-02-14T18:57:07.658Z,0.00
2023-02-14T18:58:07.909Z,0.00
2023-02-14T18:59:07.611Z,0.00
2023-02-14T19:00:07.618Z,0.00
2023-02-14T19:01:07.780Z,0.00
2023-02-14T19:02:07.609Z,0.00
2023-02-14T19:03:07.571Z,0.00
2023-02-14T19:04:07.580Z,0.00
2023-02-14T19:05:07.560Z,0.00
2023-02-14T19:06:07.558Z,0.00
2023-02-14T19:07:07.523Z,0.00
2023-02-14T19:08:07.500Z,0.00
2023-02-14T19:09:07.534Z,0.00
2023-02-14T19:10:07.480Z,0.00
2023-02-14T19:11:07.478Z,0.00
2023-02-14T19:12:07.467Z,0.00
2023-02-14T19:13:07.446Z,0.00
2023-02-14T19:14:07.426Z,0.00
2023-02-14T19:15:07.433Z,0.00
2023-02-14T19:16:07.445Z,0.00
2023-02-14T19:17:07.382Z,0.00
2023-02-14T19:18:07.366Z,0.00
2023-02-14T19:19:07.368Z,0.00
2023-02-14T19:20:07.362Z,0.00
2023-02-14T19:21:07.365Z,0.00
2023-02-14T19:22:07.372Z,0.00
2023-02-14T19:23:07.327Z,0.00
2023-02-14T19:24:07.317Z,0.00
2023-02-14T19:25:07.297Z,0.00
2023-02-14T19:26:07.248Z,0.00
2023-02-14T19:27:07.273Z,0.00
2023-02-14T19:28:07.261Z,0.00
2023-02-14T19:29:07.227Z,0.00
2023-02-14T19:30:07.283Z,0.00
2023-02-14T19:31:07.262Z,0.00
2023-02-14T19:32:07.219Z,0.00
2023-02-14T19:33:07.174Z,0.00
2023-02-14T19:34:07.204Z,0.00
2023-02-14T19:35:07.157Z,0.00
2023-02-14T19:36:07.201Z,0.00
2023-02-14T19:37:07.120Z,0.00
2023-02-14T19:38:07.092Z,0.00
2023-02-14T19:39:07.110Z,0.00
2023-02-14T19:40:07.101Z,0.00
2023-02-14T19:41:07.096Z,0.00
2023-02-14T19:42:07.056Z,0.00
2023-02-14T19:43:07.037Z,0.00
2023-02-14T19:44:07.045Z,0.00
2023-02-14T19:45:07.035Z,0.00
2023-02-14T19:46:07.092Z,0.00
2023-02-14T19:47:19.404Z,0.00
2023-02-14T19:48:07.966Z,0.00
2023-02-14T19:49:06.961Z,0.00
2023-02-14T19:50:06.944Z,0.00
2023-02-14T19:51:06.929Z,0.00
2023-02-14T19:52:14.161Z,0.00
2023-02-14T19:53:07.918Z,0.00
2023-02-14T19:54:07.022Z,0.00
2023-02-14T19:55:06.933Z,0.00
2023-02-14T19:56:06.872Z,0.00
2023-02-14T19:57:06.862Z,0.00
2023-02-14T19:58:06.869Z,0.00
2023-02-14T19:59:06.827Z,0.00
2023-02-14T20:00:06.826Z,0.00
2023-02-14T20:01:06.886Z,0.00
2023-02-14T20:02:06.832Z,0.00
2023-02-14T20:03:06.778Z,0.00
2023-02-14T20:04:06.742Z,0.00
2023-02-14T20:05:06.751Z,0.00
2023-02-14T20:06:06.728Z,0.00
2023-02-14T20:07:06.745Z,0.00
2023-02-14T20:08:06.754Z,0.00
2023-02-14T20:09:06.698Z,0.00
2023-02-14T20:10:06.672Z,0.00
2023-02-14T20:11:06.686Z,0.00
2023-02-14T20:12:06.667Z,0.00
2023-02-14T20:13:06.646Z,0.00
2023-02-14T20:14:06.617Z,0.00
2023-02-14T20:15:07.090Z,0.00
2023-02-14T20:16:06.587Z,0.00
2023-02-14T20:17:06.636Z,0.00
2023-02-14T20:18:06.559Z,0.00
2023-02-14T20:19:06.565Z,0.00
2023-02-14T20:20:06.619Z,0.00
2023-02-14T20:21:06.536Z,0.00
2023-02-14T20:22:06.533Z,0.00
2023-02-14T20:23:06.516Z,0.00
2023-02-14T20:24:06.485Z,0.00
2023-02-14T20:25:06.497Z,0.00
2023-02-14T20:26:06.453Z,0.00
2023-02-14T20:27:06.487Z,0.00
2023-02-14T20:28:06.477Z,0.00
2023-02-14T20:29:06.438Z,0.00
2023-02-14T20:30:06.504Z,0.00
2023-02-14T20:31:06.579Z,0.00
2023-02-14T20:32:06.426Z,0.00
2023-02-14T20:33:06.376Z,0.00
2023-02-14T20:34:06.349Z,0.00
2023-02-14T20:35:06.335Z,0.00
2023-02-14T20:36:06.373Z,0.00
2023-02-14T20:37:06.327Z,0.00
2023-02-14T20:38:06.324Z,0.00
2023-02-14T20:39:06.301Z,0.00
2023-02-14T20:40:06.278Z,0.00
2023-02-14T20:41:06.272Z,0.00
2023-02-14T20:42:06.272Z,0.00
2023-02-14T20:43:06.385Z,0.00
2023-02-14T20:44:06.296Z,0.00
2023-02-14T20:45:06.211Z,0.00
2023-02-14T20:46:06.217Z,0.00
2023-02-14T20:47:06.206Z,0.00
2023-02-14T20:48:06.169Z,0.00
2023-02-14T20:49:06.152Z,0.00
2023-02-14T20:50:06.141Z,0.00
2023-02-14T20:51:06.111Z,0.00
2023-02-14T20:52:06.123Z,0.00
2023-02-14T20:53:06.183Z,0.00
2023-02-14T20:54:06.128Z,0.00
2023-02-14T20:55:06.125Z,0.00
2023-02-14T20:56:06.054Z,0.00
2023-02-14T20:57:06.050Z,0.00
2023-02-14T20:58:06.035Z,0.00
2023-02-14T20:59:06.043Z,0.00
2023-02-14T21:00:06.059Z,0.00
2023-02-14T21:01:06.093Z,0.00
2023-02-14T21:02:05.980Z,0.00
2023-02-14T21:03:05.967Z,0.00
2023-02-14T21:04:05.951Z,0.00
2023-02-14T21:05:05.971Z,0.00
2023-02-14T21:06:05.922Z,0.00
2023-02-14T21:07:05.971Z,0.00
2023-02-14T21:08:05.915Z,0.00
2023-02-14T21:09:05.962Z,0.00
2023-02-14T21:10:06.022Z,0.00
2023-02-14T21:11:05.873Z,0.00
2023-02-14T21:12:05.832Z,0.00
2023-02-14T21:13:05.860Z,0.00
2023-02-14T21:14:05.819Z,0.00
2023-02-14T21:15:05.804Z,0.00
2023-02-14T21:16:05.999Z,0.00
2023-02-14T21:17:05.772Z,0.00
2023-02-14T21:18:05.781Z,0.00
2023-02-14T21:19:05.749Z,0.00
2023-02-14T21:20:05.759Z,0.00
2023-02-14T21:21:05.747Z,0.00
2023-02-14T21:22:05.737Z,0.00
2023-02-14T21:23:13.279Z,0.00
2023-02-14T21:24:05.712Z,0.00
2023-02-14T21:25:15.031Z,0.00
2023-02-14T21:26:05.712Z,0.00
2023-02-14T21:27:05.669Z,0.00
2023-02-14T21:28:05.651Z,0.00
2023-02-14T21:29:05.627Z,0.00
2023-02-14T21:30:05.643Z,0.00
2023-02-14T21:31:05.707Z,0.00
2023-02-14T21:32:05.688Z,0.00
2023-02-14T21:33:05.562Z,0.00
2023-02-14T21:34:05.570Z,0.00
2023-02-14T21:35:05.546Z,0.00
2023-02-14T21:36:05.545Z,0.00
2023-02-14T21:37:05.510Z,0.00
2023-02-14T21:38:05.527Z,0.00
2023-02-14T21:39:05.496Z,0.00
2023-02-14T21:40:05.484Z,0.00
2023-02-14T21:41:05.462Z,0.00
2023-02-14T21:42:05.445Z,0.00
2023-02-14T21:43:05.433Z,0.00
2023-02-14T21:44:05.445Z,0.00
2023-02-14T21:45:05.420Z,0.00
2023-02-14T21:46:06.593Z,0.00
2023-02-14T21:47:05.381Z,0.00
2023-02-14T21:48:05.377Z,0.00
2023-02-14T21:49:05.351Z,0.00
2023-02-14T21:50:05.360Z,0.00
2023-02-14T21:51:06.611Z,0.00
2023-02-14T21:52:05.364Z,0.00
2023-02-14T21:53:05.299Z,0.00
2023-02-14T21:54:05.327Z,0.00
2023-02-14T21:55:05.291Z,0.00
2023-02-14T21:56:05.282Z,0.00
2023-02-14T21:57:05.273Z,0.00
2023-02-14T21:58:05.328Z,0.00
2023-02-14T21:59:05.241Z,0.00
2023-02-14T22:00:05.235Z,0.00
2023-02-14T22:01:05.213Z,0.00
2023-02-14T22:02:12.696Z,0.00
2023-02-14T22:03:14.363Z,0.00
2023-02-14T22:04:12.716Z,0.00
2023-02-14T22:05:12.727Z,0.00
2023-02-14T22:06:12.654Z,0.00
2023-02-14T22:07:12.665Z,0.00
2023-02-14T22:08:12.656Z,0.00
2023-02-14T22:09:15.827Z,0.00
2023-02-14T22:10:12.622Z,0.00
2023-02-14T22:11:12.633Z,0.00
2023-02-14T22:12:05.064Z,0.00
2023-02-14T22:13:05.025Z,0.00
2023-02-14T22:14:05.030Z,0.00
2023-02-14T22:15:12.533Z,0.00
2023-02-14T22:16:05.106Z,0.00
2023-02-14T22:17:04.988Z,0.00
2023-02-14T22:18:04.972Z,0.00
2023-02-14T22:19:04.967Z,0.00
2023-02-14T22:20:04.962Z,0.00
2023-02-14T22:21:06.721Z,0.00
2023-02-14T22:22:04.940Z,0.00
2023-02-14T22:23:04.936Z,0.00
2023-02-14T22:24:04.955Z,0.00
2023-02-14T22:25:04.879Z,0.00
2023-02-14T22:26:04.884Z,0.00
2023-02-14T22:27:04.860Z,0.00
2023-02-14T22:28:04.890Z,0.00
2023-02-14T22:29:04.843Z,0.00
2023-02-14T22:30:04.860Z,0.00
2023-02-14T22:31:05.118Z,0.00
2023-02-14T22:32:04.904Z,0.00
2023-02-14T22:33:04.761Z,0.00
2023-02-14T22:34:04.760Z,0.00
2023-02-14T22:35:04.768Z,0.00
2023-02-14T22:36:04.825Z,0.00
2023-02-14T22:37:04.717Z,0.00
2023-02-14T22:38:04.735Z,0.00
2023-02-14T22:39:04.747Z,0.00
2023-02-14T22:40:04.712Z,0.00
2023-02-14T22:41:04.684Z,0.00
2023-02-14T22:42:04.660Z,0.00
2023-02-14T22:43:04.623Z,0.00
2023-02-14T22:44:04.656Z,0.00
2023-02-14T22:45:04.655Z,0.00
2023-02-14T22:46:04.629Z,0.00
2023-02-14T22:47:04.632Z,0.00
2023-02-14T22:48:04.581Z,0.00
2023-02-14T22:49:04.638Z,0.00
2023-02-14T22:50:04.546Z,0.00
2023-02-14T22:51:04.538Z,0.00
2023-02-14T22:52:04.522Z,0.00
2023-02-14T22:53:07.660Z,0.00
2023-02-14T22:54:04.525Z,0.00
2023-02-14T22:55:04.520Z,0.00
2023-02-14T22:56:04.500Z,0.00
2023-02-14T22:57:04.501Z,0.00
2023-02-14T22:58:04.462Z,0.00
